Time;durP1;ratioP1;P1;durP2;ratioP2;P2;SDS_P1;SDS_P2;PMS_P1;PMS_P2;Temp;Humidity;BMP_temperature;BMP_pressure;BME280_temperature;BME280_humidity;BME280_pressure;Samples;Min_cycle;Max_cycle;Signal;HPM_P1;HPM_P2
2022/07/24 00:00:40;;;;;;;8.85;7.85;;;;;;;21.11;92.14;96928.72;5074467;28;20203;-56
2022/07/24 00:03:07;;;;;;;8.73;8.02;;;;;;;21.10;92.16;96932.38;5066830;28;20518;-57
2022/07/24 00:05:34;;;;;;;9.23;8.52;;;;;;;21.10;92.08;96935.94;5045258;28;20227;-55
2022/07/24 00:08:02;;;;;;;8.85;8.15;;;;;;;21.11;90.48;96934.91;5057597;28;20203;-56
2022/07/24 00:10:28;;;;;;;9.10;8.23;;;;;;;21.09;91.47;96936.09;5044289;28;20207;-55
2022/07/24 00:12:56;;;;;;;8.80;7.90;;;;;;;21.06;91.52;96941.88;5056574;28;20246;-56
2022/07/24 00:15:23;;;;;;;8.45;7.65;;;;;;;21.08;91.24;96942.53;5056806;28;20286;-56
2022/07/24 00:17:50;;;;;;;9.00;8.15;;;;;;;21.10;91.02;96954.75;5056519;28;20234;-56
2022/07/24 00:20:16;;;;;;;8.73;7.97;;;;;;;21.07;90.09;96943.56;5057151;28;20294;-56
2022/07/24 00:22:43;;;;;;;8.40;7.70;;;;;;;21.06;89.53;96944.56;5056848;28;20215;-57
2022/07/24 00:25:10;;;;;;;8.75;7.95;;;;;;;21.10;88.62;96949.38;5056382;28;20229;-55
2022/07/24 00:27:36;;;;;;;9.20;8.30;;;;;;;21.05;89.57;96951.81;5056499;28;20238;-54
2022/07/24 00:30:08;;;;;;;8.77;8.00;;;;;;;21.03;89.88;96944.97;5056734;28;20207;-55
2022/07/24 00:32:35;;;;;;;8.60;7.90;;;;;;;21.04;89.88;96944.78;5056199;28;20610;-54
2022/07/24 00:35:02;;;;;;;8.88;8.23;;;;;;;21.01;91.70;96941.69;5056699;28;20597;-57
2022/07/24 00:37:28;;;;;;;9.13;8.32;;;;;;;21.01;91.44;96938.97;5057363;28;20601;-55
2022/07/24 00:39:55;;;;;;;8.65;7.90;;;;;;;21.00;92.09;96942.69;5057326;28;20215;-55
2022/07/24 00:42:22;;;;;;;8.77;8.07;;;;;;;21.00;92.38;96940.00;5056902;28;20213;-55
2022/07/24 00:44:48;;;;;;;8.88;8.10;;;;;;;20.99;91.64;96941.84;5057185;28;20245;-55
2022/07/24 00:47:17;;;;;;;8.63;7.82;;;;;;;20.99;92.45;96938.34;5056609;28;20249;-55
2022/07/24 00:49:44;;;;;;;9.00;8.20;;;;;;;21.01;92.30;96947.06;5056921;28;20203;-55
2022/07/24 00:52:10;;;;;;;8.52;7.93;;;;;;;21.00;92.14;96942.69;5056679;28;20612;-54
2022/07/24 00:54:37;;;;;;;9.05;8.25;;;;;;;21.01;91.21;96936.28;5056772;28;20229;-54
2022/07/24 00:57:04;;;;;;;8.77;7.97;;;;;;;21.04;91.08;96938.56;5057044;28;20540;-56
2022/07/24 00:59:32;;;;;;;8.63;7.95;;;;;;;21.08;90.25;96937.16;5056416;28;20211;-55
2022/07/24 01:01:59;;;;;;;8.75;8.00;;;;;;;21.08;90.35;96940.63;5056543;28;20253;-56
2022/07/24 01:04:27;;;;;;;8.88;7.85;;;;;;;21.16;89.16;96936.97;5056528;28;20213;-56
2022/07/24 01:06:54;;;;;;;8.93;8.15;;;;;;;21.12;90.26;96936.56;5047116;28;20222;-55
2022/07/24 01:09:20;;;;;;;8.63;7.80;;;;;;;21.13;89.77;96940.06;5056752;28;20280;-57
2022/07/24 01:11:47;;;;;;;8.63;7.82;;;;;;;21.09;91.71;96939.63;5056184;28;20536;-56
2022/07/24 01:14:14;;;;;;;8.52;7.75;;;;;;;21.10;91.06;96943.13;5056588;28;20242;-55
2022/07/24 01:16:41;;;;;;;8.32;7.63;;;;;;;21.09;91.47;96941.47;5056790;28;20272;-59
2022/07/24 01:19:08;;;;;;;8.90;8.20;;;;;;;21.07;92.80;96948.94;5056275;28;20605;-57
2022/07/24 01:21:36;;;;;;;8.70;7.90;;;;;;;21.06;93.47;96936.50;5055709;28;20294;-55
2022/07/24 01:24:02;;;;;;;8.57;7.78;;;;;;;21.11;91.09;96945.69;5055786;28;20640;-57
2022/07/24 01:26:29;;;;;;;8.55;7.85;;;;;;;21.08;90.89;96937.16;5049888;28;20254;-54
2022/07/24 01:28:57;;;;;;;9.27;8.25;;;;;;;21.00;91.86;96934.63;5056023;28;20199;-56
2022/07/24 01:31:24;;;;;;;9.18;8.23;;;;;;;21.04;91.19;96931.34;5056037;28;20226;-57
2022/07/24 01:33:50;;;;;;;8.73;7.97;;;;;;;20.97;92.40;96932.34;5055528;28;20296;-56
2022/07/24 01:36:17;;;;;;;8.65;8.05;;;;;;;20.95;91.99;96932.53;5042987;28;20215;-53
2022/07/24 01:38:45;;;;;;;8.77;8.07;;;;;;;20.91;91.43;96927.75;5038295;28;20290;-55
2022/07/24 01:41:12;;;;;;;8.73;7.93;;;;;;;20.89;90.84;96922.59;5051125;28;20239;-54
2022/07/24 01:43:39;;;;;;;8.77;7.95;;;;;;;20.80;91.83;96932.66;5051408;28;20207;-54
2022/07/24 01:46:06;;;;;;;9.10;8.27;;;;;;;20.75;92.45;96942.38;5055527;28;20223;-54
2022/07/24 01:48:33;;;;;;;8.85;8.10;;;;;;;20.65;93.34;96934.66;5055281;28;20296;-54
2022/07/24 01:51:00;;;;;;;8.55;7.85;;;;;;;20.67;92.19;96927.25;5054808;28;20635;-54
2022/07/24 01:53:27;;;;;;;8.95;8.25;;;;;;;20.60;92.70;96931.75;5055099;28;20218;-56
2022/07/24 01:55:55;;;;;;;8.85;8.15;;;;;;;20.56;92.54;96929.66;5055495;28;20221;-56
2022/07/24 01:58:21;;;;;;;8.85;8.05;;;;;;;20.54;93.45;96929.03;5054826;28;20612;-56
2022/07/24 02:00:49;;;;;;;8.43;7.82;;;;;;;20.52;93.42;96931.06;5056287;28;20269;-54
2022/07/24 02:03:16;;;;;;;8.85;8.15;;;;;;;20.48;93.76;96933.31;5055784;28;20655;-57
2022/07/24 02:05:42;;;;;;;8.20;7.43;;;;;;;20.42;95.50;96931.44;5065812;28;20227;-55
2022/07/24 02:08:09;;;;;;;8.40;7.70;;;;;;;20.44;94.57;96933.94;5064887;28;20203;-57
2022/07/24 02:10:36;;;;;;;9.05;8.20;;;;;;;20.42;94.37;96930.59;5064101;28;20238;-55
2022/07/24 02:13:04;;;;;;;9.85;8.70;;;;;;;20.38;95.11;96932.84;5061523;28;20211;-55
2022/07/24 02:15:31;;;;;;;8.82;8.13;;;;;;;20.37;95.39;96930.38;5060300;28;20203;-55
2022/07/24 02:18:00;;;;;;;8.57;7.82;;;;;;;20.32;95.79;96929.09;5057556;28;21160;-56
2022/07/24 02:20:27;;;;;;;9.85;8.93;;;;;;;20.32;96.25;96929.09;5056623;28;20206;-55
2022/07/24 02:22:54;;;;;;;8.45;7.75;;;;;;;20.34;95.50;96929.72;5056042;28;20214;-55
2022/07/24 02:25:21;;;;;;;9.13;8.40;;;;;;;20.38;94.80;96935.53;5056164;28;20230;-56
2022/07/24 02:27:48;;;;;;;9.10;8.30;;;;;;;20.32;96.00;96934.47;5061979;28;20320;-55
2022/07/24 02:30:18;;;;;;;9.00;8.20;;;;;;;20.31;95.68;96926.59;5070259;28;20241;-56
2022/07/24 02:32:45;;;;;;;9.27;8.57;;;;;;;20.38;94.48;96930.16;5064068;28;20203;-54
2022/07/24 02:35:12;;;;;;;8.98;8.23;;;;;;;20.33;95.70;96935.31;5071581;28;20203;-55
2022/07/24 02:37:40;;;;;;;8.85;8.18;;;;;;;20.28;97.45;96930.53;5066270;28;20203;-56
2022/07/24 02:40:09;;;;;;;9.43;8.30;;;;;;;20.23;98.94;96932.91;5051639;28;20203;-56
2022/07/24 02:42:35;;;;;;;9.27;8.48;;;;;;;20.31;96.14;96940.03;5067303;28;20286;-55
2022/07/24 02:45:02;;;;;;;9.48;8.50;;;;;;;20.28;95.62;96932.38;5069694;28;20230;-55
2022/07/24 02:47:30;;;;;;;8.95;8.20;;;;;;;20.26;95.68;96934.41;5070303;28;20250;-55
2022/07/24 02:49:57;;;;;;;8.73;8.13;;;;;;;20.18;95.33;96932.69;5069344;28;20191;-55
2022/07/24 02:52:23;;;;;;;9.15;8.45;;;;;;;20.17;95.79;96939.09;5049655;28;20231;-56
2022/07/24 02:54:50;;;;;;;9.00;8.20;;;;;;;20.16;95.67;96940.09;5051077;28;20203;-56
2022/07/24 02:57:17;;;;;;;9.23;8.32;;;;;;;20.16;95.46;96944.63;5055719;28;20230;-56
2022/07/24 02:59:49;;;;;;;9.23;8.32;;;;;;;20.08;96.36;96939.44;5055631;28;20239;-55
2022/07/24 03:02:16;;;;;;;9.57;8.77;;;;;;;20.09;95.25;96938.38;5045362;28;20195;-56
2022/07/24 03:04:44;;;;;;;10.02;9.13;;;;;;;20.08;94.75;96936.75;5058871;28;20230;-56
2022/07/24 03:07:11;;;;;;;8.85;8.15;;;;;;;20.05;94.49;96943.31;5059920;28;20566;-57
2022/07/24 03:09:37;;;;;;;9.30;8.57;;;;;;;20.00;94.96;96942.25;5058501;28;20643;-55
2022/07/24 03:12:05;;;;;;;8.40;7.70;;;;;;;20.03;94.89;96933.81;5056591;28;20195;-55
2022/07/24 03:14:31;;;;;;;9.45;8.63;;;;;;;19.85;96.24;96932.44;5058261;28;20606;-56
2022/07/24 03:16:58;;;;;;;8.73;8.02;;;;;;;19.77;98.36;96940.63;5059080;28;20213;-55
2022/07/24 03:19:25;;;;;;;9.20;8.40;;;;;;;19.71;98.65;96936.03;5058570;28;20217;-54
2022/07/24 03:21:53;;;;;;;9.30;8.38;;;;;;;19.70;98.16;96929.00;5058618;28;20213;-56
2022/07/24 03:24:19;;;;;;;8.70;7.90;;;;;;;19.67;99.09;96925.88;5059014;28;20217;-56
2022/07/24 03:26:46;;;;;;;9.18;8.23;;;;;;;19.63;99.40;96924.59;5058290;28;20231;-55
2022/07/24 03:29:12;;;;;;;9.50;8.52;;;;;;;19.62;98.86;96929.16;5059252;28;20217;-56
2022/07/24 03:31:39;;;;;;;9.15;8.38;;;;;;;19.60;97.64;96931.16;5067462;28;20642;-55
2022/07/24 03:34:06;;;;;;;8.75;8.00;;;;;;;19.61;97.73;96930.16;5062093;28;20584;-56
2022/07/24 03:36:33;;;;;;;9.13;8.32;;;;;;;19.60;97.97;96933.84;5057610;28;20245;-55
2022/07/24 03:39:01;;;;;;;9.57;8.68;;;;;;;19.58;98.14;96933.22;5057509;28;20214;-55
2022/07/24 03:41:27;;;;;;;9.43;8.73;;;;;;;19.53;98.76;96930.28;5057526;28;20207;-56
2022/07/24 03:43:54;;;;;;;9.63;8.30;;;;;;;19.52;98.83;96942.03;5057954;28;20222;-56
2022/07/24 03:46:21;;;;;;;9.07;8.38;;;;;;;19.52;97.94;96933.16;5057672;28;20237;-56
2022/07/24 03:48:48;;;;;;;8.73;7.93;;;;;;;19.48;99.64;96937.25;5053676;28;20297;-57
2022/07/24 03:51:14;;;;;;;8.98;7.90;;;;;;;19.45;99.14;96940.31;5047307;28;20203;-56
2022/07/24 03:53:41;;;;;;;8.73;8.07;;;;;;;19.48;98.14;96940.78;5057475;28;20237;-55
2022/07/24 03:56:11;;;;;;;8.85;8.05;;;;;;;19.44;97.55;96942.16;5057062;28;20203;-55
2022/07/24 03:58:38;;;;;;;8.15;7.55;;;;;;;19.52;96.22;96942.03;5057560;28;20290;-54
2022/07/24 04:01:05;;;;;;;8.38;7.78;;;;;;;19.38;99.18;96946.41;5057722;28;20217;-54
2022/07/24 04:03:31;;;;;;;11.45;10.32;;;;;;;19.35;99.62;96956.69;5045300;28;20280;-54
2022/07/24 04:05:58;;;;;;;11.30;10.20;;;;;;;19.31;100.00;96958.06;5058185;28;20682;-54
2022/07/24 04:08:25;;;;;;;9.20;8.50;;;;;;;19.33;99.36;96954.19;5054348;28;20208;-55
2022/07/24 04:10:56;;;;;;;9.20;8.40;;;;;;;19.35;99.61;96960.19;5053764;28;20250;-55
2022/07/24 04:13:26;;;;;;;8.98;8.35;;;;;;;19.31;100.00;96956.22;5073693;28;20230;-56
2022/07/24 04:15:53;;;;;;;9.50;8.77;;;;;;;19.31;100.00;96961.59;5067763;28;20211;-55
2022/07/24 04:18:20;;;;;;;9.38;8.48;;;;;;;19.30;100.00;96964.47;5057899;28;20299;-55
2022/07/24 04:20:47;;;;;;;9.10;8.40;;;;;;;19.35;100.00;96959.34;5057061;28;20260;-55
2022/07/24 04:23:13;;;;;;;9.30;8.52;;;;;;;19.49;99.50;96965.72;5056967;28;20211;-56
2022/07/24 04:25:40;;;;;;;9.30;8.48;;;;;;;19.48;100.00;96967.59;5057106;28;20596;-55
2022/07/24 04:28:07;;;;;;;9.05;8.35;;;;;;;19.48;100.00;96966.75;5057427;28;20242;-55
2022/07/24 04:30:35;;;;;;;8.90;7.97;;;;;;;19.47;100.00;96965.09;5057612;28;20225;-54
2022/07/24 04:33:02;;;;;;;9.23;8.50;;;;;;;19.53;100.00;96965.16;5045177;28;20247;-55
2022/07/24 04:35:31;;;;;;;8.95;8.20;;;;;;;19.56;100.00;96964.75;5057501;28;20667;-54
2022/07/24 04:37:58;;;;;;;9.60;8.60;;;;;;;19.57;100.00;96966.44;5057707;28;20218;-56
2022/07/24 04:40:25;;;;;;;9.68;8.82;;;;;;;19.65;99.84;96970.84;5046483;28;20609;-55
2022/07/24 04:42:52;;;;;;;8.80;8.10;;;;;;;19.73;100.00;96962.69;5056793;28;20268;-56
2022/07/24 04:45:19;;;;;;;9.30;8.48;;;;;;;19.84;100.00;96962.13;5054271;28;20230;-55
2022/07/24 04:47:47;;;;;;;9.20;8.40;;;;;;;20.03;100.00;96966.03;5054790;28;20234;-57
2022/07/24 04:50:14;;;;;;;9.18;8.48;;;;;;;20.36;98.10;96977.91;5051415;28;20231;-55
2022/07/24 04:52:40;;;;;;;9.18;8.48;;;;;;;20.61;96.67;96971.03;5055991;28;20203;-56
2022/07/24 04:55:08;;;;;;;8.65;7.95;;;;;;;20.69;95.95;96973.53;5055501;28;20636;-56
2022/07/24 04:57:35;;;;;;;8.88;8.27;;;;;;;20.65;95.83;96976.84;5056021;28;20221;-55
2022/07/24 05:00:01;;;;;;;9.38;8.60;;;;;;;20.54;96.84;96972.03;5055901;28;20549;-56
2022/07/24 05:02:28;;;;;;;9.32;8.52;;;;;;;20.56;96.63;96970.78;5055752;28;20207;-56
2022/07/24 05:04:56;;;;;;;9.35;8.57;;;;;;;20.65;96.68;96963.41;5042332;28;20208;-55
2022/07/24 05:07:23;;;;;;;9.27;8.57;;;;;;;20.67;99.22;96970.25;5055495;28;20223;-56
2022/07/24 05:09:49;;;;;;;9.10;8.38;;;;;;;20.80;96.40;96966.78;5055479;28;20284;-57
2022/07/24 05:12:16;;;;;;;9.15;8.32;;;;;;;21.03;96.24;96971.88;5054471;28;20207;-56
2022/07/24 05:14:43;;;;;;;9.70;8.77;;;;;;;21.20;94.78;96965.13;5055673;28;20231;-56
2022/07/24 05:17:09;;;;;;;9.45;8.45;;;;;;;21.26;94.46;96969.69;5055824;28;20238;-56
2022/07/24 05:19:36;;;;;;;9.68;8.85;;;;;;;21.37;94.32;96976.34;5055573;28;20211;-57
2022/07/24 05:22:04;;;;;;;9.60;8.82;;;;;;;21.44;93.60;96975.34;5055592;28;20231;-57
2022/07/24 05:24:31;;;;;;;8.95;8.18;;;;;;;21.50;94.05;96977.25;5056093;28;20218;-56
2022/07/24 05:26:57;;;;;;;9.45;8.75;;;;;;;21.58;93.62;96979.72;5055748;28;20313;-56
2022/07/24 05:29:24;;;;;;;9.10;8.30;;;;;;;21.68;92.71;96974.78;5056455;28;20211;-55
2022/07/24 05:31:51;;;;;;;9.35;8.52;;;;;;;21.81;91.04;96977.50;5057816;28;20199;-56
2022/07/24 05:34:18;;;;;;;9.77;8.98;;;;;;;21.91;86.95;96970.91;5056535;28;20775;-56
2022/07/24 05:36:44;;;;;;;8.90;8.20;;;;;;;22.01;87.82;96977.56;5055212;28;20599;-56
2022/07/24 05:39:12;;;;;;;9.38;8.68;;;;;;;22.08;87.27;96974.84;5054925;28;20214;-56
2022/07/24 05:41:39;;;;;;;5.55;5.15;;;;;;;22.72;97.99;96978.56;5055222;28;20447;-52
2022/07/24 05:44:06;;;;;;;5.22;4.82;;;;;;;23.56;94.02;96975.75;5055254;28;20260;-50
2022/07/24 05:46:32;;;;;;;5.45;5.05;;;;;;;24.18;88.74;96968.72;5055085;28;20282;-50
2022/07/24 05:48:59;;;;;;;5.68;5.30;;;;;;;24.69;84.67;96974.69;5054549;28;20277;-51
2022/07/24 05:51:26;;;;;;;5.80;5.32;;;;;;;25.10;80.86;96974.09;5054643;28;20624;-51
2022/07/24 05:53:53;;;;;;;5.75;5.35;;;;;;;25.47;77.82;96969.44;5054925;28;20226;-50
2022/07/24 05:56:21;;;;;;;6.43;5.82;;;;;;;25.74;75.31;96973.47;5055037;28;20265;-52
2022/07/24 05:58:47;;;;;;;6.18;5.78;;;;;;;26.00;73.77;96968.72;5054824;28;20643;-52
2022/07/24 06:01:14;;;;;;;6.20;5.70;;;;;;;26.25;72.63;96971.28;5054830;28;20241;-50
2022/07/24 06:03:40;;;;;;;5.93;5.43;;;;;;;26.50;70.36;96977.31;5041470;28;20215;-50
2022/07/24 06:06:07;;;;;;;8.18;7.32;;;;;;;26.42;65.01;96975.78;5054745;28;20226;-51
2022/07/24 06:08:34;;;;;;;6.05;5.45;;;;;;;26.75;68.71;96983.31;5054444;28;20325;-50
2022/07/24 06:11:00;;;;;;;7.18;6.65;;;;;;;26.87;65.17;96981.47;5054455;28;20646;-50
2022/07/24 06:13:28;;;;;;;6.20;5.78;;;;;;;27.06;66.26;96983.00;5051892;28;20649;-51
2022/07/24 06:15:55;;;;;;;8.07;7.38;;;;;;;27.09;64.34;96981.69;5054930;28;20202;-51
2022/07/24 06:18:22;;;;;;;7.00;6.50;;;;;;;27.09;64.95;96984.41;5054451;28;20203;-50
2022/07/24 06:20:48;;;;;;;6.88;6.28;;;;;;;27.17;64.64;96986.75;5054289;28;20657;-51
2022/07/24 06:23:16;;;;;;;7.95;7.25;;;;;;;27.38;63.98;96985.28;5054356;28;20282;-51
2022/07/24 06:25:43;;;;;;;8.63;8.02;;;;;;;26.99;62.90;96981.47;5061373;28;20631;-51
2022/07/24 06:28:10;;;;;;;8.75;8.00;;;;;;;26.89;61.48;96992.09;5054083;28;20241;-51
2022/07/24 06:30:38;;;;;;;8.55;7.93;;;;;;;26.79;61.92;96989.09;5054566;28;20211;-50
2022/07/24 06:33:04;;;;;;;7.75;7.00;;;;;;;26.88;61.69;96980.41;5054119;28;20200;-50
2022/07/24 06:35:32;;;;;;;7.80;7.20;;;;;;;27.03;62.96;96985.34;5054215;28;20217;-52
2022/07/24 06:37:59;;;;;;;7.43;6.82;;;;;;;27.49;63.56;96979.03;5054884;28;20213;-52
2022/07/24 06:40:26;;;;;;;7.63;6.97;;;;;;;27.45;62.15;96986.00;5057558;28;20230;-52
2022/07/24 06:42:54;;;;;;;7.72;7.22;;;;;;;27.66;61.47;96983.44;5057857;28;20243;-50
2022/07/24 06:45:21;;;;;;;9.57;8.77;;;;;;;27.01;61.79;96982.03;5058317;28;20277;-51
2022/07/24 06:47:49;;;;;;;9.00;8.30;;;;;;;27.00;61.38;96980.38;5057832;28;20827;-50
2022/07/24 06:50:16;;;;;;;8.48;7.68;;;;;;;27.32;62.67;96980.78;5057807;28;20207;-51
2022/07/24 06:52:43;;;;;;;9.30;8.60;;;;;;;26.98;63.68;96979.81;5057860;28;20217;-50
2022/07/24 06:55:10;;;;;;;9.23;8.45;;;;;;;26.98;61.86;96979.81;5057705;28;20230;-50
2022/07/24 06:57:37;;;;;;;9.10;8.35;;;;;;;27.33;61.34;96980.56;5058072;28;20213;-51
2022/07/24 07:00:06;;;;;;;6.95;6.45;;;;;;;27.66;62.39;96979.91;5058181;28;20522;-51
2022/07/24 07:02:32;;;;;;;9.32;8.45;;;;;;;27.45;61.07;96972.41;5058063;28;20230;-50
2022/07/24 07:05:00;;;;;;;8.00;7.50;;;;;;;27.75;61.30;96973.00;5057693;28;20237;-51
2022/07/24 07:07:27;;;;;;;8.02;7.30;;;;;;;27.75;61.40;96980.31;5057884;28;20227;-51
2022/07/24 07:09:53;;;;;;;8.90;8.10;;;;;;;27.55;61.82;96975.31;5055678;28;20211;-50
2022/07/24 07:12:20;;;;;;;9.63;8.82;;;;;;;27.93;59.79;96969.25;5057851;28;20595;-51
2022/07/24 07:14:46;;;;;;;10.68;9.88;;;;;;;27.48;58.89;96974.66;5054864;28;20207;-52
2022/07/24 07:17:15;;;;;;;9.80;9.00;;;;;;;27.20;63.85;96976.25;5056385;28;20233;-52
2022/07/24 07:19:42;;;;;;;10.73;9.70;;;;;;;27.04;64.55;96978.84;5057454;28;20294;-50
2022/07/24 07:22:10;;;;;;;10.20;9.40;;;;;;;27.22;62.02;96967.84;5057401;28;20238;-51
2022/07/24 07:24:37;;;;;;;10.50;9.60;;;;;;;27.29;63.59;96975.84;5057268;28;20207;-51
2022/07/24 07:27:04;;;;;;;8.30;7.70;;;;;;;27.97;62.16;96968.50;5057476;28;20289;-50
2022/07/24 07:29:32;;;;;;;10.38;9.48;;;;;;;28.35;60.20;96967.81;5055795;28;20611;-51
2022/07/24 07:31:58;;;;;;;11.95;10.95;;;;;;;28.42;59.81;96962.22;5049013;28;20209;-52
2022/07/24 07:34:26;;;;;;;9.45;8.65;;;;;;;28.77;58.96;96961.97;5057508;28;20238;-51
2022/07/24 07:36:53;;;;;;;10.98;9.95;;;;;;;28.87;58.10;96959.41;5057231;28;20203;-52
2022/07/24 07:39:21;;;;;;;10.77;9.88;;;;;;;28.87;57.43;96959.41;5056958;28;20211;-50
2022/07/24 07:41:48;;;;;;;11.07;10.13;;;;;;;28.58;59.88;96966.84;5057232;28;20207;-50
2022/07/24 07:44:15;;;;;;;10.30;9.50;;;;;;;28.52;60.30;96968.63;5057331;28;20207;-50
2022/07/24 07:46:41;;;;;;;10.38;9.52;;;;;;;28.45;60.23;96946.22;5057173;28;20536;-51
2022/07/24 07:49:08;;;;;;;11.43;10.50;;;;;;;28.87;56.48;96952.06;5057762;28;20219;-50
2022/07/24 07:51:35;;;;;;;10.70;9.77;;;;;;;29.01;57.17;96947.06;5056538;28;20235;-51
2022/07/24 07:54:02;;;;;;;10.57;9.63;;;;;;;29.08;59.12;96947.72;5051989;28;20278;-50
2022/07/24 07:56:32;;;;;;;11.55;10.55;;;;;;;28.99;58.74;96946.47;5057093;28;20229;-51
2022/07/24 07:58:58;;;;;;;12.23;11.23;;;;;;;29.10;56.74;96945.53;5056845;28;20241;-50
2022/07/24 08:01:25;;;;;;;9.85;9.15;;;;;;;29.03;60.16;96948.47;5056977;28;20249;-50
2022/07/24 08:03:52;;;;;;;11.20;10.18;;;;;;;28.91;59.84;96945.00;5056897;28;20238;-50
2022/07/24 08:06:18;;;;;;;10.73;9.82;;;;;;;28.88;60.81;96948.25;5056573;28;20213;-51
2022/07/24 08:08:46;;;;;;;9.95;9.15;;;;;;;29.42;57.79;96946.53;5056704;28;20227;-51
2022/07/24 08:11:13;;;;;;;11.27;10.30;;;;;;;29.19;57.88;96946.78;5056366;28;20639;-49
2022/07/24 08:13:41;;;;;;;10.77;9.82;;;;;;;29.11;59.28;96939.84;5056788;28;20217;-50
2022/07/24 08:16:08;;;;;;;11.15;10.20;;;;;;;29.10;58.03;96948.28;5056542;28;20278;-51
2022/07/24 08:18:34;;;;;;;9.63;8.82;;;;;;;29.58;56.98;96934.69;5056414;28;20231;-51
2022/07/24 08:21:01;;;;;;;10.88;10.05;;;;;;;29.84;56.09;96938.56;5056616;28;20239;-50
2022/07/24 08:23:28;;;;;;;11.50;10.63;;;;;;;29.52;59.62;96941.19;5056493;28;20202;-52
2022/07/24 08:25:54;;;;;;;10.50;9.70;;;;;;;29.56;56.87;96936.88;5056511;28;20234;-51
2022/07/24 08:28:22;;;;;;;11.60;10.50;;;;;;;29.61;57.64;96936.13;5056034;28;20227;-53
2022/07/24 08:30:50;;;;;;;9.63;8.93;;;;;;;29.97;57.46;96932.66;5056188;28;20606;-52
2022/07/24 08:33:17;;;;;;;11.48;10.60;;;;;;;29.75;58.36;96933.81;5056070;28;20207;-51
2022/07/24 08:35:44;;;;;;;11.52;10.43;;;;;;;29.77;57.41;96932.44;5055933;28;20250;-51
2022/07/24 08:38:12;;;;;;;12.00;11.18;;;;;;;29.44;56.30;96928.00;5055494;28;20743;-50
2022/07/24 08:40:40;;;;;;;11.05;10.15;;;;;;;29.80;56.38;96931.09;5055772;28;21394;-51
2022/07/24 08:43:08;;;;;;;11.45;10.55;;;;;;;29.43;57.11;96937.28;5055746;28;20217;-52
2022/07/24 08:45:37;;;;;;;11.38;10.38;;;;;;;29.62;58.22;96935.84;5055854;28;20223;-50
2022/07/24 08:48:06;;;;;;;10.82;10.02;;;;;;;29.92;57.36;96929.91;5055267;28;20262;-50
2022/07/24 08:50:35;;;;;;;9.98;9.07;;;;;;;30.23;56.37;96925.53;5055224;28;20246;-52
2022/07/24 08:53:03;;;;;;;11.05;10.15;;;;;;;30.26;53.79;96929.66;5055231;28;20230;-50
2022/07/24 08:55:30;;;;;;;8.98;8.25;;;;;;;30.56;54.30;96936.22;5055339;28;20307;-52
2022/07/24 08:57:57;;;;;;;8.45;7.85;;;;;;;30.59;53.86;96940.31;5055645;28;20207;-51
2022/07/24 09:00:24;;;;;;;11.88;10.98;;;;;;;30.22;55.55;96936.72;5055425;28;20218;-52
2022/07/24 09:02:50;;;;;;;11.75;10.75;;;;;;;30.55;54.59;96931.81;5055280;28;20618;-52
2022/07/24 09:05:20;;;;;;;11.05;10.15;;;;;;;30.74;53.66;96931.41;5055296;28;20354;-53
2022/07/24 09:07:47;;;;;;;11.98;11.07;;;;;;;30.30;53.80;96926.16;5055552;28;20217;-52
2022/07/24 09:10:16;;;;;;;11.20;10.15;;;;;;;30.36;54.55;96924.28;5055460;28;20203;-52
2022/07/24 09:12:45;;;;;;;13.32;12.05;;;;;;;30.24;54.73;96921.75;5055313;28;20620;-52
2022/07/24 09:15:13;;;;;;;13.02;11.82;;;;;;;29.76;56.53;96925.34;5055080;28;20241;-52
2022/07/24 09:17:48;;;;;;;12.07;10.88;;;;;;;30.03;55.41;96914.47;5055180;28;20231;-53
2022/07/24 09:20:15;;;;;;;11.98;11.00;;;;;;;30.06;56.12;96920.22;5055065;28;20495;-51
2022/07/24 09:22:45;;;;;;;10.43;9.63;;;;;;;30.35;55.05;96922.63;5054662;28;20685;-52
2022/07/24 09:25:14;;;;;;;12.27;11.23;;;;;;;30.36;56.24;96919.63;5052376;28;20302;-52
2022/07/24 09:27:47;;;;;;;12.65;11.65;;;;;;;30.18;56.99;96917.34;5054671;28;20207;-52
2022/07/24 09:30:29;;;;;;;11.98;10.98;;;;;;;30.36;56.12;96908.72;5055122;28;20251;-51
2022/07/24 09:32:57;;;;;;;11.00;10.02;;;;;;;30.74;54.49;96906.81;5054861;28;20222;-52
2022/07/24 09:35:30;;;;;;;11.18;10.43;;;;;;;30.94;54.47;96898.72;5054798;28;20211;-52
2022/07/24 09:38:00;;;;;;;12.57;11.63;;;;;;;30.49;53.67;96913.78;5054601;28;20230;-51
2022/07/24 09:40:30;;;;;;;12.05;11.10;;;;;;;30.42;55.85;96909.63;5054713;28;20239;-52
2022/07/24 09:43:13;;;;;;;12.35;11.23;;;;;;;30.68;53.94;96905.97;5054551;28;20655;-53
2022/07/24 09:45:53;;;;;;;13.85;12.52;;;;;;;30.37;57.01;96915.00;5054273;28;20628;-50
2022/07/24 09:48:22;;;;;;;12.38;11.38;;;;;;;30.51;54.54;96905.31;5054518;28;20242;-53
2022/07/24 09:50:50;;;;;;;12.10;11.20;;;;;;;30.27;54.45;96901.28;5054050;28;20221;-53
2022/07/24 09:53:19;;;;;;;11.48;10.57;;;;;;;30.86;54.00;96904.69;5054410;28;20542;-52
2022/07/24 09:55:56;;;;;;;11.77;10.77;;;;;;;30.63;52.70;96903.22;5049968;28;20241;-52
2022/07/24 09:58:23;;;;;;;11.38;10.32;;;;;;;31.07;53.53;96901.03;5054538;28;20293;-52
2022/07/24 10:00:50;;;;;;;10.70;9.85;;;;;;;31.20;53.39;96906.00;5054546;28;20207;-49
2022/07/24 10:03:19;;;;;;;11.15;10.35;;;;;;;31.32;53.05;96912.03;5054390;28;20206;-53
2022/07/24 10:05:47;;;;;;;10.13;9.43;;;;;;;31.52;51.33;96901.22;5054154;28;20239;-52
2022/07/24 10:08:14;;;;;;;10.30;9.50;;;;;;;31.09;51.72;96907.03;5054266;28;20231;-55
2022/07/24 10:10:44;;;;;;;9.85;9.15;;;;;;;31.24;50.69;96898.91;5054108;28;20203;-54
2022/07/24 10:13:11;;;;;;;9.60;8.80;;;;;;;31.26;48.82;96891.25;5053369;28;20628;-52
2022/07/24 10:15:52;;;;;;;10.15;9.35;;;;;;;31.39;51.00;96884.47;5054113;28;20511;-52
2022/07/24 10:18:21;;;;;;;9.73;8.93;;;;;;;31.60;51.25;96890.84;5054136;28;20245;-52
2022/07/24 10:20:48;;;;;;;9.23;8.52;;;;;;;31.33;50.20;96885.53;5054329;28;20222;-51
2022/07/24 10:23:28;;;;;;;9.23;8.48;;;;;;;31.37;49.61;96881.16;5048297;28;20203;-52
2022/07/24 10:26:05;;;;;;;9.55;8.75;;;;;;;31.52;48.07;96884.00;5048752;28;20308;-51
2022/07/24 10:28:42;;;;;;;8.32;7.72;;;;;;;31.95;48.40;96882.69;5057478;28;20735;-49
2022/07/24 10:31:11;;;;;;;7.88;7.28;;;;;;;32.11;45.26;96881.63;5057948;28;20202;-49
2022/07/24 10:33:39;;;;;;;8.13;7.53;;;;;;;32.34;46.21;96872.84;5061609;28;20239;-48
2022/07/24 10:36:16;;;;;;;8.98;8.27;;;;;;;32.17;44.23;96871.50;5052789;28;20208;-53
2022/07/24 10:38:49;;;;;;;8.40;7.60;;;;;;;32.45;44.64;96871.72;5038337;28;20214;-51
2022/07/24 10:41:25;;;;;;;8.93;8.23;;;;;;;32.36;45.77;96865.19;5042448;28;20210;-51
2022/07/24 10:44:14;;;;;;;10.10;9.35;;;;;;;32.31;47.22;96859.69;5055462;28;20199;-51
2022/07/24 10:47:01;;;;;;;9.40;8.70;;;;;;;32.54;46.90;96864.59;5055088;28;20217;-52
2022/07/24 10:49:47;;;;;;;10.25;9.35;;;;;;;32.53;48.23;96862.94;5053874;28;20253;-52
2022/07/24 10:52:26;;;;;;;9.23;8.57;;;;;;;32.21;47.72;96851.50;5053827;28;20297;-54
2022/07/24 10:55:25;;;;;;;9.25;8.50;;;;;;;32.35;46.85;96855.31;5054527;28;20250;-55
2022/07/24 10:57:57;;;;;;;9.25;8.55;;;;;;;32.40;46.59;96851.75;5045484;28;20203;-51
2022/07/24 11:00:26;;;;;;;9.05;8.32;;;;;;;32.39;45.92;96845.44;5052737;28;20642;-54
2022/07/24 11:02:57;;;;;;;9.32;8.52;;;;;;;32.12;45.76;96849.59;5052904;28;20208;-53
2022/07/24 11:05:30;;;;;;;8.07;7.38;;;;;;;31.45;44.86;96843.22;5061845;28;20196;-52
2022/07/24 11:08:29;;;;;;;8.75;7.95;;;;;;;31.16;45.25;96844.78;5062843;28;20187;-52
2022/07/24 11:10:59;;;;;;;8.02;7.50;;;;;;;30.86;46.40;96839.97;5051129;28;20224;-52
2022/07/24 11:13:46;;;;;;;8.75;8.15;;;;;;;30.61;47.51;96837.13;5061488;28;20290;-51
2022/07/24 11:16:32;;;;;;;8.35;7.68;;;;;;;30.74;47.65;96838.56;5072715;28;20246;-53
2022/07/24 11:19:30;;;;;;;8.20;7.60;;;;;;;31.01;48.84;96829.16;5073355;28;20192;-53
2022/07/24 11:22:06;;;;;;;8.48;7.88;;;;;;;31.38;49.53;96818.06;5070047;28;20187;-52
2022/07/24 11:24:33;;;;;;;8.65;7.97;;;;;;;31.48;47.51;96825.44;5064360;28;20258;-52
2022/07/24 11:27:03;;;;;;;8.93;8.23;;;;;;;31.75;45.58;96825.22;5077578;28;20203;-52
2022/07/24 11:29:34;;;;;;;8.40;7.80;;;;;;;32.05;45.45;96819.75;5075054;28;20289;-56
2022/07/24 11:32:05;;;;;;;8.18;7.57;;;;;;;32.24;47.70;96809.88;5058362;28;20253;-53
2022/07/24 11:34:33;;;;;;;8.32;7.72;;;;;;;32.44;45.48;96809.03;5059129;28;20543;-51